Time;durP1;ratioP1;P1;durP2;ratioP2;P2;SDS_P1;SDS_P2;PMS_P1;PMS_P2;Temp;Humidity;BMP_temperature;BMP_pressure;BME280_temperature;BME280_humidity;BME280_pressure;Samples;Min_cycle;Max_cycle;Signal;HPM_P1;HPM_P2
2023/01/28 00:00:27;;;;;;;3.77;3.20;;;-0.70;99.90;;;;;;7404896;19;20321;-88
2023/01/28 00:02:53;;;;;;;4.97;3.45;;;-0.70;99.90;;;;;;7404451;19;20379;-90
2023/01/28 00:05:18;;;;;;;4.60;3.30;;;-0.70;99.90;;;;;;7404103;19;20332;-93
2023/01/28 00:07:48;;;;;;;4.65;3.08;;;-0.70;99.90;;;;;;7404408;19;20309;-89
2023/01/28 00:10:14;;;;;;;6.18;3.22;;;-0.80;99.90;;;;;;7404380;19;20304;-90
2023/01/28 00:12:39;;;;;;;5.43;2.90;;;-0.80;99.90;;;;;;7405271;19;20360;-92
2023/01/28 00:15:09;;;;;;;3.40;3.00;;;-0.80;99.90;;;;;;7407471;19;20679;-87
2023/01/28 00:17:36;;;;;;;4.37;2.97;;;-0.80;99.90;;;;;;7408450;19;20396;-88
2023/01/28 00:20:02;;;;;;;5.13;3.45;;;-0.90;99.90;;;;;;7407621;19;20317;-93
2023/01/28 00:22:28;;;;;;;4.32;2.90;;;-0.90;99.90;;;;;;7404502;19;20345;-93
2023/01/28 00:24:53;;;;;;;4.27;2.90;;;-0.90;99.90;;;;;;7406845;19;20380;-89
2023/01/28 00:27:19;;;;;;;4.90;3.47;;;-0.90;99.90;;;;;;7408366;19;20392;-88
2023/01/28 00:29:54;;;;;;;3.30;3.00;;;-0.90;99.90;;;;;;7408122;19;20881;-88
2023/01/28 00:32:19;;;;;;;3.22;2.70;;;-0.90;99.90;;;;;;7402770;19;20357;-91
2023/01/28 00:34:45;;;;;;;4.27;3.20;;;-0.90;99.90;;;;;;7404687;19;21048;-92
2023/01/28 00:37:11;;;;;;;5.45;3.28;;;-0.90;99.90;;;;;;7402410;19;20337;-91
2023/01/28 00:39:36;;;;;;;3.53;3.10;;;-1.00;99.90;;;;;;7403029;19;20899;-90
2023/01/28 00:42:02;;;;;;;3.10;2.80;;;-1.10;99.90;;;;;;7402145;19;20335;-86
2023/01/28 00:44:28;;;;;;;3.80;3.00;;;-1.10;99.90;;;;;;7403548;19;20337;-90
2023/01/28 00:46:53;;;;;;;4.77;3.37;;;-1.10;99.90;;;;;;7405700;19;20341;-93
2023/01/28 00:49:21;;;;;;;3.40;2.70;;;-1.10;99.90;;;;;;7402888;19;20343;-92
2023/01/28 00:51:47;;;;;;;3.88;2.88;;;-1.10;99.90;;;;;;7405621;19;20349;-90
2023/01/28 00:54:14;;;;;;;6.57;3.20;;;-1.10;99.90;;;;;;7403636;19;20325;-88
2023/01/28 00:56:40;;;;;;;4.33;2.90;;;-1.10;99.90;;;;;;7405203;19;20352;-89
2023/01/28 00:59:05;;;;;;;6.18;3.25;;;-1.10;99.90;;;;;;7409369;19;20411;-86
2023/01/28 01:01:31;;;;;;;3.23;2.63;;;-1.00;99.90;;;;;;7407696;19;20905;-92
2023/01/28 01:04:01;;;;;;;3.78;2.90;;;-1.10;99.90;;;;;;7405695;19;20324;-91
2023/01/28 01:06:35;;;;;;;3.47;2.95;;;-1.10;99.90;;;;;;7407394;19;20337;-87
2023/01/28 01:09:01;;;;;;;4.10;3.05;;;-1.10;99.90;;;;;;7408119;19;20315;-87
2023/01/28 01:11:27;;;;;;;3.40;2.83;;;-1.10;99.90;;;;;;7409844;19;20331;-88
2023/01/28 01:13:54;;;;;;;3.70;2.90;;;-1.20;99.90;;;;;;7407699;19;20332;-92
2023/01/28 01:16:20;;;;;;;4.20;2.60;;;-1.20;99.90;;;;;;7410577;19;20308;-91
2023/01/28 01:18:47;;;;;;;3.58;2.60;;;-1.20;99.90;;;;;;7412269;19;20352;-86
2023/01/28 01:21:15;;;;;;;3.47;3.00;;;-1.20;99.90;;;;;;7411785;19;20324;-87
2023/01/28 01:23:41;;;;;;;5.25;3.13;;;-1.20;99.90;;;;;;7410118;19;20402;-87
2023/01/28 01:26:06;;;;;;;4.57;3.10;;;-1.20;99.90;;;;;;7412057;19;20308;-88
2023/01/28 01:28:32;;;;;;;3.30;3.00;;;-1.20;99.90;;;;;;7412420;19;20300;-91
2023/01/28 01:31:00;;;;;;;4.75;3.40;;;-1.30;99.90;;;;;;7403334;19;20297;-84
2023/01/28 01:33:27;;;;;;;3.25;2.90;;;-1.50;99.90;;;;;;7409163;19;20325;-87
2023/01/28 01:35:56;;;;;;;4.78;3.30;;;-1.60;99.90;;;;;;7413456;19;20345;-90
2023/01/28 01:38:21;;;;;;;4.18;3.08;;;-1.60;99.90;;;;;;7413100;19;20332;-87
2023/01/28 01:40:47;;;;;;;3.63;2.50;;;-1.50;99.90;;;;;;7412455;19;20412;-86
2023/01/28 01:43:19;;;;;;;3.58;2.80;;;-1.50;99.90;;;;;;7408992;19;20309;-88
2023/01/28 01:45:47;;;;;;;5.22;2.90;;;-1.60;99.90;;;;;;7414036;19;20420;-86
2023/01/28 01:48:24;;;;;;;2.58;2.35;;;-1.70;99.90;;;;;;7413908;19;20329;-88
2023/01/28 01:50:55;;;;;;;3.28;2.80;;;-1.70;99.90;;;;;;7413729;19;20567;-88
2023/01/28 01:53:21;;;;;;;2.70;2.30;;;-1.80;99.90;;;;;;7412218;19;20317;-88
2023/01/28 01:55:48;;;;;;;4.93;2.88;;;-1.80;99.90;;;;;;7410498;19;20348;-89
2023/01/28 01:58:16;;;;;;;2.53;2.30;;;-1.80;99.90;;;;;;7413101;19;20339;-89
2023/01/28 02:00:41;;;;;;;3.45;2.63;;;-1.80;99.90;;;;;;7411817;19;20790;-89
2023/01/28 02:03:08;;;;;;;3.03;2.60;;;-1.80;99.90;;;;;;7418174;19;20329;-84
2023/01/28 02:05:34;;;;;;;4.97;3.08;;;-1.80;99.90;;;;;;7419589;19;20352;-88
2023/01/28 02:10:45;;;;;;;3.67;2.85;;;-1.90;99.90;;;;;;7317235;19;2004485;-89
2023/01/28 02:13:11;;;;;;;3.72;2.92;;;-2.00;99.90;;;;;;7416903;19;20318;-88
2023/01/28 02:15:37;;;;;;;3.53;2.97;;;-2.00;99.90;;;;;;7418308;19;20336;-88
2023/01/28 02:18:03;;;;;;;4.27;3.00;;;-2.10;99.90;;;;;;7418902;19;20313;-89
2023/01/28 02:20:47;;;;;;;3.47;3.13;;;-2.10;99.90;;;;;;7417523;19;20326;-87
2023/01/28 02:23:37;;;;;;;5.20;3.08;;;-2.20;99.90;;;;;;7314083;19;2004451;-88
2023/01/28 02:26:08;;;;;;;4.00;3.00;;;-2.20;99.90;;;;;;7417538;19;20325;-90
2023/01/28 02:28:59;;;;;;;5.63;3.30;;;-2.30;99.90;;;;;;7414971;19;20309;-93
2023/01/28 02:31:29;;;;;;;3.50;2.92;;;-2.30;99.90;;;;;;7311355;19;2004228;-93
2023/01/28 02:34:10;;;;;;;5.05;3.40;;;-2.40;99.90;;;;;;7414121;19;20328;-91
2023/01/28 02:36:39;;;;;;;4.43;3.40;;;-2.30;99.90;;;;;;7313772;19;2004374;-86
2023/01/28 02:39:09;;;;;;;6.43;3.30;;;-2.40;99.90;;;;;;7423915;19;20333;-89
2023/01/28 02:41:39;;;;;;;3.35;2.75;;;-2.40;99.90;;;;;;7313926;19;2004770;-86
2023/01/28 02:44:07;;;;;;;5.07;3.42;;;-2.50;99.90;;;;;;7421312;19;20309;-92
2023/01/28 02:49:30;;;;;;;4.63;3.03;;;-2.50;99.90;;;;;;7314457;19;2005823;-86
2023/01/28 02:52:01;;;;;;;3.85;3.17;;;-2.40;99.90;;;;;;7417068;19;20377;-84
2023/01/28 02:54:54;;;;;;;3.03;2.70;;;-2.40;99.90;;;;;;7416470;19;20336;-87
2023/01/28 02:57:29;;;;;;;4.35;3.20;;;-2.40;99.90;;;;;;7314463;19;2004506;-88
2023/01/28 03:00:10;;;;;;;6.28;3.25;;;-2.40;99.90;;;;;;7417083;19;20455;-88
2023/01/28 03:02:41;;;;;;;4.40;3.35;;;-2.40;99.90;;;;;;7314730;19;2003600;-85
2023/01/28 03:05:24;;;;;;;4.67;3.00;;;-2.50;99.90;;;;;;7419948;19;20315;-88
2023/01/28 03:07:50;;;;;;;6.97;3.30;;;-2.50;99.90;;;;;;7420510;19;20337;-86
2023/01/28 03:10:18;;;;;;;3.67;2.92;;;-2.50;99.90;;;;;;7419683;19;20324;-87
2023/01/28 03:38:47;;;;;;;5.28;3.05;;;-2.60;99.90;;;;;;7316163;19;2004401;-86
2023/01/28 03:41:20;;;;;;;3.33;3.00;;;-2.60;99.90;;;;;;7418239;19;20313;-88
2023/01/28 03:43:46;;;;;;;4.63;3.10;;;-2.60;99.90;;;;;;7419339;19;20340;-86
2023/01/28 03:46:12;;;;;;;5.45;3.65;;;-2.60;99.90;;;;;;7419066;19;20335;-86
2023/01/28 03:48:38;;;;;;;4.35;3.20;;;-2.60;99.90;;;;;;7417426;19;20324;-86
2023/01/28 03:51:05;;;;;;;5.63;3.23;;;-2.60;99.90;;;;;;7418814;19;20293;-88
2023/01/28 03:53:31;;;;;;;4.80;2.97;;;-2.60;99.90;;;;;;7417528;19;20297;-86
2023/01/28 03:55:57;;;;;;;4.70;3.23;;;-2.60;99.90;;;;;;7418760;19;20319;-85
2023/01/28 03:58:25;;;;;;;5.13;2.80;;;-2.60;99.90;;;;;;7417992;19;20320;-88
2023/01/28 04:00:52;;;;;;;5.20;2.85;;;-2.60;99.90;;;;;;7417293;19;20340;-86
2023/01/28 04:03:18;;;;;;;4.00;3.03;;;-2.50;99.90;;;;;;7418626;19;20336;-87
2023/01/28 04:06:02;;;;;;;4.40;2.78;;;-2.50;99.90;;;;;;7418540;19;20345;-87
2023/01/28 04:08:57;;;;;;;3.65;2.72;;;-2.40;99.90;;;;;;7314935;19;2003968;-86
2023/01/28 04:11:29;;;;;;;3.20;2.90;;;-2.30;99.90;;;;;;7417815;19;20353;-86
2023/01/28 04:13:56;;;;;;;3.15;2.33;;;-2.30;99.90;;;;;;7416827;19;20321;-86
2023/01/28 04:16:23;;;;;;;2.80;2.47;;;-2.20;99.90;;;;;;7414149;19;20376;-86
2023/01/28 04:18:48;;;;;;;5.07;3.08;;;-2.20;99.90;;;;;;7418470;19;20333;-86
2023/01/28 04:21:15;;;;;;;4.38;3.25;;;-2.20;99.90;;;;;;7416610;19;20328;-87
2023/01/28 04:23:40;;;;;;;4.35;2.90;;;-2.20;99.90;;;;;;7413015;19;20735;-86
2023/01/28 04:26:07;;;;;;;4.57;3.20;;;-2.20;99.90;;;;;;7416949;19;20326;-87
2023/01/28 04:28:33;;;;;;;5.82;2.95;;;-2.20;99.90;;;;;;7418543;19;20329;-87
2023/01/28 04:30:59;;;;;;;3.13;2.55;;;-2.20;99.90;;;;;;7417254;19;20326;-86
2023/01/28 04:33:44;;;;;;;3.03;2.42;;;-2.20;99.90;;;;;;7312797;19;2004189;-86
2023/01/28 04:36:29;;;;;;;4.90;3.00;;;-2.10;99.90;;;;;;7417338;19;20362;-86
2023/01/28 04:39:13;;;;;;;3.20;2.70;;;-2.20;99.90;;;;;;7313872;19;2004065;-86
2023/01/28 04:41:46;;;;;;;4.35;2.88;;;-2.10;99.90;;;;;;7417038;19;20333;-86
2023/01/28 04:44:32;;;;;;;8.70;3.38;;;-2.10;99.90;;;;;;7417145;19;20297;-86
2023/01/28 04:47:16;;;;;;;2.85;2.63;;;-2.10;99.90;;;;;;7314579;19;2004182;-86
2023/01/28 04:50:02;;;;;;;3.40;2.63;;;-2.00;99.90;;;;;;7415921;19;20327;-86
2023/01/28 04:52:37;;;;;;;6.10;3.30;;;-1.90;99.90;;;;;;7314218;19;2004193;-86
2023/01/28 04:55:07;;;;;;;4.40;3.17;;;-1.90;99.90;;;;;;7416477;19;20324;-86
2023/01/28 04:57:33;;;;;;;2.67;2.47;;;-1.90;99.90;;;;;;7417344;19;20293;-86
2023/01/28 04:59:59;;;;;;;3.85;2.97;;;-1.70;99.90;;;;;;7415978;19;20374;-85
2023/01/28 05:02:25;;;;;;;4.57;2.80;;;-1.80;99.90;;;;;;7415526;19;20369;-87
2023/01/28 05:04:51;;;;;;;4.10;2.93;;;-1.80;99.90;;;;;;7416987;19;20349;-86
2023/01/28 05:07:37;;;;;;;3.77;2.73;;;-1.70;99.90;;;;;;7313397;19;2004048;-85
2023/01/28 05:10:03;;;;;;;4.25;3.13;;;-1.60;99.90;;;;;;7415836;19;20337;-87
2023/01/28 05:12:31;;;;;;;4.32;2.90;;;-1.60;99.90;;;;;;7415248;19;20281;-87
2023/01/28 05:14:59;;;;;;;4.15;3.00;;;-1.60;99.90;;;;;;7417190;19;20361;-88
2023/01/28 05:17:28;;;;;;;3.40;2.92;;;-1.50;99.90;;;;;;7417985;19;20324;-85
2023/01/28 05:19:54;;;;;;;3.83;3.10;;;-1.60;99.90;;;;;;7416014;19;20358;-86
2023/01/28 05:22:23;;;;;;;4.47;3.65;;;-1.50;99.90;;;;;;7414993;19;20352;-87
2023/01/28 05:25:11;;;;;;;4.10;2.80;;;-1.60;99.90;;;;;;7311990;19;2004313;-87
2023/01/28 05:27:38;;;;;;;4.22;3.10;;;-1.60;99.90;;;;;;7414743;19;20349;-86
2023/01/28 05:30:05;;;;;;;4.80;3.47;;;-1.50;99.90;;;;;;7415335;19;20293;-87
2023/01/28 05:32:31;;;;;;;6.07;3.97;;;-1.60;99.90;;;;;;7413798;19;20308;-87
2023/01/28 05:34:56;;;;;;;5.53;4.03;;;-1.60;99.90;;;;;;7416711;19;20312;-87
2023/01/28 05:37:22;;;;;;;4.97;3.63;;;-1.70;99.90;;;;;;7415577;19;20319;-90
2023/01/28 05:39:51;;;;;;;5.25;3.42;;;-1.70;99.90;;;;;;7416791;19;20328;-92
2023/01/28 05:42:19;;;;;;;3.42;2.72;;;-1.70;99.90;;;;;;7415327;19;20305;-91
2023/01/28 05:44:46;;;;;;;4.40;2.45;;;-1.60;99.90;;;;;;7418085;19;20874;-86
2023/01/28 05:47:21;;;;;;;3.67;2.70;;;-1.70;99.90;;;;;;7418642;19;20398;-82
2023/01/28 05:49:47;;;;;;;2.75;2.50;;;-1.60;99.90;;;;;;7423668;19;20332;-86
2023/01/28 05:52:30;;;;;;;2.73;2.40;;;-1.60;99.90;;;;;;7421226;19;20320;-86
2023/01/28 05:54:56;;;;;;;6.05;2.88;;;-1.60;99.90;;;;;;7420540;19;20325;-83
2023/01/28 05:57:22;;;;;;;6.22;2.78;;;-1.60;99.90;;;;;;7420245;19;20366;-86
2023/01/28 05:59:49;;;;;;;4.32;2.90;;;-1.60;99.90;;;;;;7421050;19;20338;-86
2023/01/28 06:02:15;;;;;;;4.88;2.50;;;-1.60;99.90;;;;;;7420570;19;20398;-85
2023/01/28 06:04:41;;;;;;;2.95;2.60;;;-1.50;99.90;;;;;;7424435;19;20315;-87
2023/01/28 06:07:08;;;;;;;3.80;2.80;;;-1.60;99.90;;;;;;7421468;19;20315;-86
2023/01/28 06:09:35;;;;;;;3.50;2.10;;;-1.60;99.90;;;;;;7422494;19;20353;-85
2023/01/28 06:12:01;;;;;;;2.80;2.00;;;-1.60;99.90;;;;;;7411350;19;20333;-82
2023/01/28 06:14:29;;;;;;;3.25;2.28;;;-1.60;99.90;;;;;;7419841;19;20353;-86
2023/01/28 06:17:09;;;;;;;2.38;2.17;;;-1.50;99.90;;;;;;7315911;19;2004157;-83
2023/01/28 06:20:00;;;;;;;4.25;2.35;;;-1.50;99.90;;;;;;7421312;19;20292;-84
2023/01/28 06:22:28;;;;;;;3.55;2.40;;;-1.30;99.90;;;;;;7420579;19;20379;-85
2023/01/28 06:24:53;;;;;;;3.58;2.40;;;-1.30;99.90;;;;;;7420414;19;20398;-86
2023/01/28 06:27:19;;;;;;;3.40;2.53;;;-1.40;99.90;;;;;;7419286;19;20870;-83
2023/01/28 06:29:44;;;;;;;3.63;2.50;;;-1.20;99.90;;;;;;7415517;19;20363;-81
2023/01/28 06:32:10;;;;;;;3.70;2.70;;;-1.30;99.90;;;;;;7418040;19;20340;-87
2023/01/28 06:34:35;;;;;;;4.65;2.90;;;-1.30;99.90;;;;;;7419848;19;20323;-86
2023/01/28 06:37:03;;;;;;;3.17;2.50;;;-1.30;99.90;;;;;;7417608;19;20305;-83
2023/01/28 06:39:30;;;;;;;3.93;2.67;;;-1.30;99.90;;;;;;7419311;19;20312;-86
2023/01/28 06:41:56;;;;;;;4.32;2.60;;;-1.30;99.90;;;;;;7418836;19;20340;-84
2023/01/28 06:44:22;;;;;;;2.65;2.45;;;-1.30;99.90;;;;;;7413181;19;20368;-88
2023/01/28 06:46:48;;;;;;;3.80;2.63;;;-1.30;99.90;;;;;;7417875;19;20316;-86
2023/01/28 06:49:13;;;;;;;2.17;2.00;;;-1.40;99.90;;;;;;7418415;19;20373;-81
2023/01/28 06:51:39;;;;;;;4.13;1.90;;;-1.30;99.90;;;;;;7413573;19;20316;-86
2023/01/28 06:54:05;;;;;;;2.73;2.17;;;-1.30;99.90;;;;;;7417346;19;20360;-86
2023/01/28 06:56:30;;;;;;;2.37;2.10;;;-1.20;99.90;;;;;;7413392;19;20329;-82
2023/01/28 06:58:56;;;;;;;2.42;2.20;;;-1.10;99.90;;;;;;7406729;19;20469;-85
2023/01/28 07:01:21;;;;;;;2.43;2.10;;;-1.10;99.90;;;;;;7414346;19;20317;-87
2023/01/28 07:03:47;;;;;;;3.70;2.90;;;-1.10;99.90;;;;;;7415849;19;20393;-86
2023/01/28 07:06:13;;;;;;;2.33;2.13;;;-1.00;99.90;;;;;;7417813;19;20338;-90
2023/01/28 07:08:40;;;;;;;2.40;2.20;;;-1.10;99.90;;;;;;7418510;19;20328;-87
2023/01/28 07:11:05;;;;;;;3.95;2.70;;;-1.10;99.90;;;;;;7419334;19;20357;-88
2023/01/28 07:13:31;;;;;;;2.50;2.30;;;-1.00;99.90;;;;;;7417151;19;20340;-88
2023/01/28 07:15:57;;;;;;;4.18;2.90;;;-1.00;99.90;;;;;;7417695;19;20353;-90
2023/01/28 07:18:23;;;;;;;4.10;2.83;;;-1.10;99.90;;;;;;7416519;19;20347;-88
2023/01/28 07:20:48;;;;;;;3.57;3.00;;;-1.30;99.90;;;;;;7412874;19;20320;-90
2023/01/28 07:23:14;;;;;;;3.20;2.90;;;-1.30;99.90;;;;;;7413368;19;20324;-88
2023/01/28 07:25:39;;;;;;;3.37;2.60;;;-1.20;99.90;;;;;;7416522;19;20305;-87
2023/01/28 07:28:05;;;;;;;4.60;2.97;;;-1.10;99.90;;;;;;7416068;19;20608;-86
2023/01/28 07:30:31;;;;;;;4.45;2.92;;;-1.00;99.90;;;;;;7414876;19;20315;-90
2023/01/28 07:32:57;;;;;;;3.10;2.80;;;-1.00;99.90;;;;;;7414416;19;20342;-88
2023/01/28 07:35:23;;;;;;;4.17;2.87;;;-0.80;99.90;;;;;;7415615;19;20317;-89
2023/01/28 07:37:53;;;;;;;4.68;3.20;;;-0.80;99.90;;;;;;7417166;19;20382;-88
2023/01/28 07:40:18;;;;;;;2.97;2.67;;;-0.80;99.90;;;;;;7414725;19;20304;-87
2023/01/28 07:42:44;;;;;;;4.37;2.93;;;-0.80;99.90;;;;;;7412792;19;20312;-89
2023/01/28 07:45:10;;;;;;;4.90;3.03;;;-0.70;99.90;;;;;;7415694;19;20312;-86
2023/01/28 07:47:36;;;;;;;4.28;3.30;;;-0.70;99.90;;;;;;7417263;19;20361;-87
2023/01/28 07:50:02;;;;;;;4.80;3.17;;;-0.70;99.90;;;;;;7415827;19;21061;-89
2023/01/28 07:52:28;;;;;;;4.30;3.00;;;-1.00;99.90;;;;;;7416057;19;20297;-87
2023/01/28 07:54:53;;;;;;;6.35;3.10;;;-1.00;99.90;;;;;;7416007;19;20392;-86
2023/01/28 07:57:22;;;;;;;5.03;3.27;;;-1.10;99.90;;;;;;7417524;19;20317;-90
2023/01/28 07:59:50;;;;;;;3.42;2.90;;;-1.10;99.90;;;;;;7413315;19;20345;-88
2023/01/28 08:02:16;;;;;;;3.88;3.17;;;-1.10;99.90;;;;;;7399355;19;20341;-84
2023/01/28 08:04:42;;;;;;;2.88;2.53;;;-1.20;99.90;;;;;;7399815;19;20376;-92
2023/01/28 08:07:08;;;;;;;3.65;2.70;;;-1.10;99.90;;;;;;7402210;19;20317;-84
2023/01/28 08:09:33;;;;;;;3.40;2.50;;;-1.00;99.90;;;;;;7395273;19;20827;-88
2023/01/28 08:12:01;;;;;;;4.10;2.65;;;-0.90;99.90;;;;;;7390818;19;20767;-89
2023/01/28 08:14:26;;;;;;;3.65;3.00;;;-0.80;99.90;;;;;;7398038;19;20336;-91
2023/01/28 08:16:52;;;;;;;3.00;2.70;;;-0.80;99.90;;;;;;7396423;19;20334;-86
2023/01/28 08:19:20;;;;;;;4.00;2.92;;;-0.80;99.90;;;;;;7397864;19;20413;-90
2023/01/28 08:21:46;;;;;;;4.00;3.00;;;-0.80;99.90;;;;;;7391187;19;20316;-80
2023/01/28 08:24:12;;;;;;;4.07;3.13;;;-0.80;99.90;;;;;;7389111;19;20325;-88
2023/01/28 08:26:37;;;;;;;4.40;3.20;;;-0.80;99.90;;;;;;7389182;19;20340;-84
2023/01/28 08:29:04;;;;;;;4.10;2.95;;;-0.80;99.90;;;;;;7386568;19;20308;-84
2023/01/28 08:31:29;;;;;;;3.47;2.45;;;-0.90;99.90;;;;;;7384028;19;20941;-86
2023/01/28 08:33:55;;;;;;;3.87;3.13;;;-0.90;99.90;;;;;;7390123;19;20380;-91
2023/01/28 08:36:20;;;;;;;4.57;3.30;;;-0.90;99.90;;;;;;7391784;19;20336;-88
2023/01/28 08:38:46;;;;;;;3.57;2.80;;;-0.90;99.90;;;;;;7387272;19;20432;-84
2023/01/28 08:41:12;;;;;;;5.57;2.70;;;-0.90;99.90;;;;;;7385181;19;20309;-90
2023/01/28 08:43:37;;;;;;;4.90;2.72;;;-0.80;99.90;;;;;;7385111;19;20304;-87
2023/01/28 08:46:06;;;;;;;5.43;2.90;;;-0.70;99.90;;;;;;7390920;19;20313;-87
2023/01/28 08:48:32;;;;;;;3.28;2.80;;;-0.80;99.90;;;;;;7389893;19;20328;-89
2023/01/28 08:50:58;;;;;;;4.10;3.00;;;-0.60;99.90;;;;;;7385635;19;20671;-82
2023/01/28 08:53:24;;;;;;;5.10;3.53;;;-0.50;99.90;;;;;;7385682;19;20325;-93
2023/01/28 08:55:49;;;;;;;5.70;4.03;;;-0.40;99.90;;;;;;7389367;19;21017;-89
2023/01/28 08:58:16;;;;;;;4.77;3.43;;;-0.80;99.90;;;;;;7393367;19;20324;-85
2023/01/28 09:00:42;;;;;;;4.80;4.10;;;-0.70;99.90;;;;;;7392639;19;20442;-84
2023/01/28 09:03:07;;;;;;;4.25;3.55;;;-0.70;99.90;;;;;;7393763;19;20385;-82
2023/01/28 09:05:34;;;;;;;4.32;3.08;;;-0.60;99.90;;;;;;7395840;19;20325;-91
2023/01/28 09:08:07;;;;;;;7.78;4.35;;;-0.50;99.90;;;;;;7399756;19;20390;-94
2023/01/28 09:10:32;;;;;;;4.32;3.33;;;-0.60;99.90;;;;;;7395884;19;20392;-93
2023/01/28 09:12:58;;;;;;;6.60;3.95;;;-0.60;99.90;;;;;;7397668;19;20301;-92
2023/01/28 09:15:24;;;;;;;6.97;4.50;;;-0.60;99.90;;;;;;7401486;19;20320;-85
2023/01/28 09:17:55;;;;;;;5.10;3.95;;;-0.70;99.90;;;;;;7399654;19;20308;-87
2023/01/28 09:20:21;;;;;;;4.85;3.90;;;-0.70;99.90;;;;;;7396486;19;20878;-90
2023/01/28 09:22:46;;;;;;;4.95;3.42;;;-0.70;99.90;;;;;;7389606;19;20325;-88
2023/01/28 09:25:12;;;;;;;5.00;3.13;;;-0.60;99.90;;;;;;7390011;19;20340;-91
2023/01/28 09:27:39;;;;;;;6.43;3.08;;;-0.50;99.90;;;;;;7386590;19;20328;-87
2023/01/28 09:30:06;;;;;;;5.78;3.53;;;-0.50;99.90;;;;;;7405286;19;20340;-83
2023/01/28 09:32:32;;;;;;;3.63;2.90;;;-0.40;99.90;;;;;;7409275;19;20329;-86
2023/01/28 09:34:59;;;;;;;5.40;3.13;;;-0.30;99.90;;;;;;7413192;19;20304;-86
2023/01/28 09:37:25;;;;;;;3.90;3.00;;;-0.40;99.90;;;;;;7407476;19;20337;-89
2023/01/28 09:39:51;;;;;;;4.67;2.90;;;-0.30;99.90;;;;;;7409064;19;20352;-91
2023/01/28 09:42:52;;;;;;;4.40;3.63;;;-0.30;99.90;;;;;;7407730;19;20373;-85
2023/01/28 09:45:28;;;;;;;5.30;3.60;;;-0.30;99.90;;;;;;7308156;19;2004136;-89
2023/01/28 09:47:55;;;;;;;5.37;3.40;;;-0.30;99.90;;;;;;7410930;19;20328;-90
2023/01/28 09:50:32;;;;;;;5.15;3.55;;;-0.20;99.90;;;;;;7409881;19;20308;-88
2023/01/28 09:53:12;;;;;;;4.65;3.90;;;-0.30;99.90;;;;;;7408496;19;20312;-90
2023/01/28 09:55:40;;;;;;;4.72;3.10;;;-0.20;99.90;;;;;;7409615;19;20333;-86
2023/01/28 09:58:10;;;;;;;4.68;3.20;;;-0.20;99.90;;;;;;7409052;19;20377;-88
2023/01/28 10:01:13;;;;;;;4.50;2.80;;;-0.10;99.90;;;;;;7408298;19;20309;-90
2023/01/28 10:03:44;;;;;;;5.43;3.90;;;-0.10;99.90;;;;;;7205726;19;2004297;-88
2023/01/28 10:06:27;;;;;;;3.53;3.22;;;0.00;99.90;;;;;;7408806;19;20304;-87
2023/01/28 10:09:25;;;;;;;6.20;3.75;;;0.00;99.90;;;;;;7306726;19;2004366;-90
2023/01/28 10:12:29;;;;;;;3.70;2.90;;;0.00;99.90;;;;;;7294857;19;2004491;-94
2023/01/28 10:15:13;;;;;;;4.88;3.85;;;0.00;99.90;;;;;;7296759;19;2004271;-95
2023/01/28 10:17:42;;;;;;;4.30;3.53;;;0.00;99.90;;;;;;7399621;19;20316;-90
2023/01/28 10:20:11;;;;;;;4.88;3.08;;;0.10;99.90;;;;;;7389009;19;20332;-85
2023/01/28 10:22:41;;;;;;;4.45;3.13;;;0.10;99.90;;;;;;7391107;19;20340;-79
2023/01/28 10:25:14;;;;;;;5.78;3.50;;;0.10;99.90;;;;;;7395517;19;20449;-83
2023/01/28 10:27:39;;;;;;;3.42;2.83;;;0.20;99.90;;;;;;7392055;19;20379;-85
2023/01/28 10:30:15;;;;;;;6.40;2.90;;;0.30;99.90;;;;;;7393913;19;20379;-85
2023/01/28 10:32:45;;;;;;;4.75;3.00;;;0.30;99.90;;;;;;7308234;19;2003349;-85
2023/01/28 10:35:11;;;;;;;3.00;2.50;;;0.20;99.90;;;;;;7412867;19;20301;-90
2023/01/28 10:37:38;;;;;;;4.43;2.43;;;0.10;99.90;;;;;;7414884;19;20335;-88
2023/01/28 10:40:04;;;;;;;2.15;1.83;;;0.20;99.90;;;;;;7414800;19;20313;-92
2023/01/28 10:42:30;;;;;;;2.22;1.80;;;0.10;99.90;;;;;;7414849;19;20352;-91
2023/01/28 10:45:12;;;;;;;2.75;2.15;;;0.10;99.90;;;;;;7415437;19;20372;-87
2023/01/28 10:47:40;;;;;;;2.28;2.08;;;0.10;99.90;;;;;;7416727;19;20306;-85
2023/01/28 10:50:06;;;;;;;2.70;1.80;;;0.20;99.90;;;;;;7417693;19;20301;-86
2023/01/28 10:52:32;;;;;;;2.42;1.92;;;0.10;99.90;;;;;;7413675;19;20313;-88
2023/01/28 10:55:02;;;;;;;3.60;2.20;;;0.20;99.90;;;;;;7418549;19;20332;-88
2023/01/28 10:57:27;;;;;;;2.65;2.00;;;0.10;99.90;;;;;;7417989;19;20325;-87
2023/01/28 10:59:53;;;;;;;3.15;2.25;;;0.20;99.90;;;;;;7418542;19;20389;-86
2023/01/28 11:02:31;;;;;;;3.77;2.00;;;0.10;99.90;;;;;;7413298;19;20320;-87
2023/01/28 11:05:04;;;;;;;3.22;2.45;;;0.10;99.90;;;;;;7416367;19;20332;-86
2023/01/28 11:07:30;;;;;;;3.03;2.33;;;0.10;99.90;;;;;;7415188;19;20312;-86
2023/01/28 11:09:56;;;;;;;2.93;1.90;;;0.20;99.90;;;;;;7417099;19;20375;-86
2023/01/28 11:12:22;;;;;;;2.35;2.10;;;0.30;99.90;;;;;;7414075;19;20573;-87
2023/01/28 11:14:58;;;;;;;2.88;2.58;;;0.40;99.90;;;;;;7415367;19;20353;-87
2023/01/28 11:17:26;;;;;;;3.75;2.65;;;0.40;99.90;;;;;;7415101;19;20324;-87
2023/01/28 11:19:52;;;;;;;2.67;2.10;;;0.50;99.90;;;;;;7416182;19;20304;-86
2023/01/28 11:22:34;;;;;;;2.22;1.95;;;0.50;99.90;;;;;;7417215;19;20332;-87
2023/01/28 11:25:01;;;;;;;2.80;2.13;;;0.50;99.90;;;;;;7418150;19;20344;-87
2023/01/28 11:27:29;;;;;;;3.23;2.63;;;0.50;99.90;;;;;;7417725;19;20317;-89
2023/01/28 11:29:56;;;;;;;3.55;2.90;;;0.70;99.90;;;;;;7415897;19;20325;-87
2023/01/28 11:32:24;;;;;;;3.13;2.78;;;0.60;99.90;;;;;;7413000;19;20340;-92
2023/01/28 11:34:51;;;;;;;3.20;2.90;;;0.70;99.90;;;;;;7417039;19;20334;-87
2023/01/28 11:37:19;;;;;;;3.67;2.80;;;0.70;99.90;;;;;;7418135;19;20349;-87
2023/01/28 11:39:45;;;;;;;4.22;2.45;;;0.80;99.90;;;;;;7416932;19;20370;-86
2023/01/28 11:42:18;;;;;;;3.88;2.33;;;0.50;99.90;;;;;;7413717;19;20317;-95
2023/01/28 11:44:43;;;;;;;6.13;3.95;;;0.50;99.90;;;;;;7306148;19;2004318;-93
2023/01/28 11:47:43;;;;;;;5.33;3.67;;;0.70;99.90;;;;;;7409253;19;20308;-88
2023/01/28 11:50:38;;;;;;;2.23;2.03;;;0.70;99.90;;;;;;7306649;19;2004274;-90
2023/01/28 11:53:15;;;;;;;4.18;3.28;;;0.70;99.90;;;;;;7304172;19;2004475;-89
2023/01/28 11:55:51;;;;;;;6.25;3.60;;;0.70;99.90;;;;;;7305213;19;2004269;-84
2023/01/28 11:58:22;;;;;;;10.20;5.85;;;0.70;99.90;;;;;;7406123;19;20342;-90
2023/01/28 12:01:08;;;;;;;6.68;4.82;;;0.70;99.90;;;;;;7411824;19;20299;-87
2023/01/28 12:03:36;;;;;;;6.30;3.97;;;0.60;99.90;;;;;;7410853;19;20313;-91
2023/01/28 12:06:16;;;;;;;3.58;2.47;;;0.50;99.90;;;;;;7405165;19;20340;-92
2023/01/28 12:08:42;;;;;;;10.03;5.83;;;0.50;99.90;;;;;;7298934;19;2004266;-88
2023/01/28 12:12:10;;;;;;;2.78;2.42;;;0.50;99.90;;;;;;7405358;19;20305;-86
2023/01/28 12:14:18;;;;;;;5.68;3.47;;;0.50;99.90;;;;;;7205122;19;2004237;-90
2023/01/28 12:16:55;;;;;;;5.90;3.17;;;0.60;99.90;;;;;;7412064;19;20353;-88
2023/01/28 12:19:37;;;;;;;7.68;4.03;;;0.70;99.90;;;;;;7415966;19;20360;-86
2023/01/28 12:22:12;;;;;;;3.45;2.60;;;0.70;99.90;;;;;;7413387;19;20289;-86
2023/01/28 12:25:03;;;;;;;3.28;2.80;;;0.70;99.90;;;;;;7415460;19;20330;-87
2023/01/28 12:27:42;;;;;;;2.60;2.40;;;0.70;99.90;;;;;;7313400;19;2004855;-87
2023/01/28 12:30:40;;;;;;;2.83;2.17;;;0.60;99.90;;;;;;7416634;19;20308;-86
2023/01/28 12:33:29;;;;;;;3.70;2.22;;;0.50;99.90;;;;;;7312771;19;2004090;-86
2023/01/28 12:36:32;;;;;;;2.03;1.80;;;0.40;99.90;;;;;;7313131;19;2004659;-86
2023/01/28 12:39:13;;;;;;;4.00;2.30;;;0.50;99.90;;;;;;7309230;19;2004015;-86
2023/01/28 12:41:45;;;;;;;2.95;2.15;;;0.50;99.90;;;;;;7415366;19;20309;-87
2023/01/28 12:44:14;;;;;;;2.43;2.23;;;0.40;99.90;;;;;;7414699;19;20751;-87
2023/01/28 12:46:51;;;;;;;2.63;2.42;;;0.50;99.90;;;;;;7412638;19;20340;-87
2023/01/28 12:49:26;;;;;;;3.55;3.00;;;0.60;99.90;;;;;;7310640;19;2004354;-86
2023/01/28 12:52:01;;;;;;;3.10;2.80;;;0.50;99.90;;;;;;7414143;19;20317;-89
2023/01/28 12:54:37;;;;;;;3.20;2.45;;;0.30;99.90;;;;;;7412813;19;20313;-85
2023/01/28 12:57:06;;;;;;;4.38;3.00;;;0.40;99.90;;;;;;7414377;19;20309;-88
2023/01/28 12:59:38;;;;;;;2.33;2.13;;;0.40;99.90;;;;;;7414631;19;20333;-87
2023/01/28 13:02:36;;;;;;;3.55;2.45;;;0.50;99.90;;;;;;7414543;19;20368;-87
2023/01/28 13:05:09;;;;;;;2.70;2.50;;;0.60;99.90;;;;;;7311494;19;2006060;-87
2023/01/28 13:07:46;;;;;;;5.57;2.95;;;0.60;99.90;;;;;;7414467;19;20317;-87
2023/01/28 13:10:18;;;;;;;3.05;2.40;;;0.50;99.90;;;;;;7310018;19;2004253;-86
2023/01/28 13:12:43;;;;;;;2.85;2.20;;;0.50;99.90;;;;;;7411334;19;20336;-86
2023/01/28 13:15:14;;;;;;;4.20;2.70;;;0.50;99.90;;;;;;7414184;19;20329;-87
2023/01/28 13:17:51;;;;;;;3.60;2.50;;;0.60;99.90;;;;;;7413239;19;20328;-86
2023/01/28 13:20:37;;;;;;;2.88;2.60;;;0.70;99.90;;;;;;7310632;19;2012669;-88
2023/01/28 13:23:05;;;;;;;2.80;2.55;;;0.70;99.90;;;;;;7413646;19;20324;-86
2023/01/28 13:25:32;;;;;;;2.90;2.50;;;0.70;99.90;;;;;;7413985;19;20335;-87
2023/01/28 13:28:03;;;;;;;4.72;2.60;;;0.80;99.90;;;;;;7413883;19;20349;-83
2023/01/28 13:30:33;;;;;;;3.67;2.70;;;0.80;99.90;;;;;;7413332;19;20316;-88
2023/01/28 13:33:03;;;;;;;4.43;3.42;;;0.80;99.90;;;;;;7412695;19;20325;-87
2023/01/28 13:35:37;;;;;;;5.13;4.03;;;0.90;99.90;;;;;;7412706;19;20665;-87